UAL Europe — MKVS6 — position and weather

sailwx.info

Track history (hours):
 
Tides and Currents Weather Stations Pressure Air Temp Water Temp Dewpoint Dewpoint Depression Visibility Wind Speed Wind Dir Waves Ship Positions

UAL Europe

Last reported at 2014-Oct-26 02:33 UTC. Time now 2014-Oct-26 03:01 UTC.
Position N 50°46' E 000°51'.

Length 145 m; draft 6 m.

Type: Ship (hazmat cat A). MMSI: 235010190.

Date/timePositionNaut miles runAvg speedWind from/ knotsBaromVisibWave heightAir tempDewpointWater temp
2014-Oct-26 02:33N 50°46' E 000°51'1211.4
2014-Oct-26 01:31N 50°52' E 001°07'1010.5
2014-Oct-26 00:34N 50°59' E 001°18'1010.1
2014-Oct-25 23:33N 51°06' E 001°31'1212.0
2014-Oct-25 22:34N 51°13' E 001°45'1414.0
2014-Oct-25 21:33N 51°24' E 001°59'1111.5
2014-Oct-25 20:34N 51°21' E 002°17'1413.4
2014-Oct-25 19:33N 51°23' E 002°38'1211.9
2014-Oct-25 18:33N 51°24' E 002°57'1413.8
2014-Oct-25 17:34N 51°25' E 003°19'1312.7
2014-Oct-25 16:34N 51°26' E 003°39'1111.1
2014-Oct-25 15:33N 51°22' E 003°55'7 6.5
2014-Oct-25 14:33N 51°22' E 004°06'7 7.2
2014-Oct-25 13:33N 51°21' E 004°17'0 0.0
2014-Oct-25 12:33N 51°21' E 004°17'1 0.5
2014-Oct-25 11:34N 51°21' E 004°18'4 4.5
2014-Oct-25 10:34N 51°17' E 004°22'1 0.8
2014-Oct-25 09:31N 51°17' E 004°23'0 0.0
2014-Oct-25 08:31N 51°17' E 004°23'0 0.0
2014-Oct-25 07:31N 51°17' E 004°23'0 0.0
2014-Oct-25 06:31N 51°17' E 004°23'0 0.0
2014-Oct-25 05:31N 51°17' E 004°23'0 0.0
2014-Oct-25 04:31N 51°17' E 004°23'0 0.0
2014-Oct-25 03:31N 51°17' E 004°23'0 0.0
2014-Oct-25 02:31N 51°17' E 004°23'0 0.0
2014-Oct-25 01:31N 51°17' E 004°23'0 0.0
2014-Oct-25 00:31N 51°17' E 004°23'0 0.0
2014-Oct-24 23:31N 51°17' E 004°23'0 0.0
2014-Oct-24 22:31N 51°17' E 004°23'0 0.0
2014-Oct-24 21:31N 51°17' E 004°23'0 0.0
2014-Oct-24 20:31N 51°17' E 004°23'0 0.0
2014-Oct-24 19:31N 51°17' E 004°23'0 0.0
2014-Oct-24 18:31N 51°17' E 004°23'0 0.0
2014-Oct-24 17:31N 51°17' E 004°23'0 0.0
2014-Oct-24 16:31N 51°17' E 004°23'0 0.0
2014-Oct-24 15:31N 51°17' E 004°23'0 0.0
2014-Oct-24 14:31N 51°17' E 004°23'0 0.0
2014-Oct-24 13:31N 51°17' E 004°23'0 0.0
2014-Oct-24 12:28N 51°17' E 004°23'0 0.0
2014-Oct-24 11:31N 51°17' E 004°23'0 0.0
2014-Oct-24 10:31N 51°17' E 004°23'0 0.0
2014-Oct-24 09:31N 51°17' E 004°23'0 0.0
2014-Oct-24 08:31N 51°17' E 004°23'0 0.0
2014-Oct-24 07:31N 51°17' E 004°23'0 0.0
2014-Oct-24 06:31N 51°17' E 004°23'0 0.0
2014-Oct-24 05:31N 51°17' E 004°23'0 0.0
2014-Oct-24 04:31N 51°17' E 004°23'0 0.0
2014-Oct-24 03:31N 51°17' E 004°23'0 0.0
2014-Oct-24 02:28N 51°17' E 004°23'0 0.0
2014-Oct-24 01:31N 51°17' E 004°23'0 0.0
2014-Oct-24 00:34N 51°17' E 004°23'0 0.0
2014-Oct-23 23:34N 51°17' E 004°23'0 0.0
2014-Oct-23 22:33N 51°17' E 004°23'0 0.0
2014-Oct-23 21:33N 51°17' E 004°23'0 0.0
2014-Oct-23 20:33N 51°17' E 004°23'0 0.0
2014-Oct-23 19:33N 51°17' E 004°23'0 0.0
2014-Oct-23 18:33N 51°17' E 004°23'0 0.0
2014-Oct-23 17:33N 51°17' E 004°23'0 0.0
2014-Oct-23 16:33N 51°17' E 004°23'0 0.0
2014-Oct-23 15:33N 51°17' E 004°23'0 0.0
2014-Oct-23 14:33N 51°17' E 004°23'0 0.0
2014-Oct-23 13:33N 51°17' E 004°23'0 0.0
2014-Oct-23 12:33N 51°17' E 004°23'0 0.0
2014-Oct-23 11:33N 51°17' E 004°23'0 0.0
2014-Oct-23 10:33N 51°17' E 004°23'0 0.0
2014-Oct-23 09:33N 51°17' E 004°23'0 0.0
2014-Oct-23 08:33N 51°17' E 004°23'0 0.0
2014-Oct-23 07:33N 51°17' E 004°23'0 0.0
2014-Oct-23 06:33N 51°17' E 004°23'0 0.0
2014-Oct-23 05:33N 51°17' E 004°23'0 0.0
2014-Oct-23 04:33N 51°17' E 004°23'0 0.0
2014-Oct-23 03:33N 51°17' E 004°23'0 0.0
2014-Oct-23 02:33N 51°17' E 004°23'0 0.0
2014-Oct-23 01:33N 51°17' E 004°23'0 0.0
2014-Oct-23 00:33N 51°17' E 004°23'0 0.0
2014-Oct-22 23:33N 51°17' E 004°23'0 0.0
2014-Oct-22 22:33N 51°17' E 004°23'0 0.0
2014-Oct-22 21:33N 51°17' E 004°23'0 0.0
2014-Oct-22 20:33N 51°17' E 004°23'0 0.0
2014-Oct-22 19:33N 51°17' E 004°23'0 0.0
2014-Oct-22 18:33N 51°17' E 004°23'0 0.0
2014-Oct-22 17:33N 51°17' E 004°23'0 0.0
2014-Oct-22 16:33N 51°17' E 004°23'0 0.0
2014-Oct-22 15:33N 51°17' E 004°23'0 0.0
2014-Oct-22 14:33N 51°17' E 004°23'0 0.0
2014-Oct-22 13:32N 51°17' E 004°23'0 0.0
2014-Oct-22 12:32N 51°17' E 004°23'0 0.0
2014-Oct-22 11:32N 51°17' E 004°23'0 0.0
2014-Oct-22 10:32N 51°17' E 004°23'0 0.0
2014-Oct-22 09:32N 51°17' E 004°23'0 0.0
2014-Oct-22 08:32N 51°17' E 004°23'0 0.0
2014-Oct-22 07:34N 51°17' E 004°23'2 1.9
2014-Oct-22 06:34N 51°17' E 004°20'1 1.1
2014-Oct-22 05:34N 51°17' E 004°19'8 8.0
2014-Oct-22 04:33N 51°23' E 004°09'7 7.3
2014-Oct-22 03:34N 51°24' E 003°57'9 9.2
2014-Oct-22 02:34N 51°24' E 003°43'9 8.9
2014-Oct-22 01:33N 51°25' E 003°28'1313.1
2014-Oct-22 00:33N 51°24' E 003°07'1413.3
2014-Oct-21 23:32N 51°26' E 002°46'20 9.9
2014-Oct-21 21:32N 51°45' E 002°37'5210.4
2014-Oct-21 16:33N 52°33' E 003°08'1110.9
2014-Oct-21 15:31N 52°44' E 003°12'14610.4
2014-Oct-21 01:33N 54°53' E 005°07'1212.6
2014-Oct-21 00:33N 55°03' E 005°18'26810.6
2014-Oct-19 23:12N 58°49' E 009°45'812.7
2014-Oct-19 22:34N 58°57' E 009°49'8 8.5
2014-Oct-19 21:33N 58°59' E 010°04'3 3.2
2014-Oct-19 20:33N 59°03' E 010°03'0 0.0
2014-Oct-19 19:33N 59°03' E 010°03'0 0.0
2014-Oct-19 18:30N 59°03' E 010°03'0 0.0
2014-Oct-19 17:33N 59°03' E 010°03'0 0.0
2014-Oct-19 16:33N 59°03' E 010°03'0 0.0
2014-Oct-19 15:33N 59°03' E 010°03'0 0.0
2014-Oct-19 14:33N 59°03' E 010°03'0 0.0
2014-Oct-19 13:33N 59°03' E 010°03'0 0.0
2014-Oct-19 12:33N 59°03' E 010°03'0 0.0
2014-Oct-19 11:33N 59°03' E 010°03'0 0.0
2014-Oct-19 10:33N 59°03' E 010°03'0 0.0
2014-Oct-19 09:33N 59°03' E 010°03'0 0.0
2014-Oct-19 08:33N 59°03' E 010°03'0 0.0
2014-Oct-19 07:33N 59°03' E 010°03'0 0.0
2014-Oct-19 06:33N 59°03' E 010°03'0 0.0
2014-Oct-19 05:33N 59°03' E 010°03'0 0.0
2014-Oct-19 04:33N 59°03' E 010°03'0 0.0
2014-Oct-19 03:33N 59°03' E 010°03'0 0.0
2014-Oct-19 02:33N 59°03' E 010°03'0 0.0
2014-Oct-19 01:33N 59°03' E 010°03'0 0.0
2014-Oct-19 00:33N 59°03' E 010°03'0 0.0
2014-Oct-18 23:33N 59°03' E 010°03'0 0.0
2014-Oct-18 22:30N 59°03' E 010°03'0 0.0
2014-Oct-18 21:33N 59°03' E 010°03'0 0.0
2014-Oct-18 20:33N 59°03' E 010°03'0 0.0
2014-Oct-18 19:30N 59°03' E 010°03'0 0.0
2014-Oct-18 18:33N 59°03' E 010°03'0 0.0
2014-Oct-18 17:33N 59°03' E 010°03'0 0.0
2014-Oct-18 16:30N 59°03' E 010°03'0 0.0
2014-Oct-18 15:33N 59°03' E 010°03'0 0.0
2014-Oct-18 14:33N 59°03' E 010°03'0 0.0
2014-Oct-18 13:33N 59°03' E 010°03'0 0.0
2014-Oct-18 12:32N 59°03' E 010°03'0 0.0
2014-Oct-18 11:32N 59°03' E 010°03'0 0.0
2014-Oct-18 10:26N 59°03' E 010°03'0 0.0
2014-Oct-18 09:32N 59°03' E 010°03'0 0.0
2014-Oct-18 08:29N 59°03' E 010°03'0 0.0
2014-Oct-18 07:33N 59°03' E 010°03'1 0.9
2014-Oct-18 06:33N 59°02' E 010°03'69 9.8
2014-Oct-17 23:30N 58°01' E 008°57'1413.6
2014-Oct-17 22:28N 57°54' E 008°35'1413.6
2014-Oct-17 21:27N 57°47' E 008°12'30912.4
2014-Oct-16 20:33N 57°12' W 001°18'1110.9
2014-Oct-16 19:33N 57°11' W 001°38'  
Track history (hours):
 
Tides and Currents Weather Stations Pressure Air Temp Water Temp Dewpoint Dewpoint Depression Visibility Wind Speed Wind Dir Waves Ship Positions

UAL Europe

Last reported at 2014-Oct-26 02:33 UTC. Time now 2014-Oct-26 03:01 UTC.
Position N 50°46' E 000°51'.

Length 145 m; draft 6 m.

Type: Ship (hazmat cat A). MMSI: 235010190.

Date/timePositionNaut miles runAvg speedWind from/ knotsBaromVisibWave heightAir tempDewpointWater temp
2014-Oct-26 02:33N 50°46' E 000°51'1211.4
2014-Oct-26 01:31N 50°52' E 001°07'1010.5
2014-Oct-26 00:34N 50°59' E 001°18'1010.1
2014-Oct-25 23:33N 51°06' E 001°31'1212.0
2014-Oct-25 22:34N 51°13' E 001°45'1414.0
2014-Oct-25 21:33N 51°24' E 001°59'1111.5
2014-Oct-25 20:34N 51°21' E 002°17'1413.4
2014-Oct-25 19:33N 51°23' E 002°38'1211.9
2014-Oct-25 18:33N 51°24' E 002°57'1413.8
2014-Oct-25 17:34N 51°25' E 003°19'1312.7
2014-Oct-25 16:34N 51°26' E 003°39'1111.1
2014-Oct-25 15:33N 51°22' E 003°55'7 6.5
2014-Oct-25 14:33N 51°22' E 004°06'7 7.2
2014-Oct-25 13:33N 51°21' E 004°17'0 0.0
2014-Oct-25 12:33N 51°21' E 004°17'1 0.5
2014-Oct-25 11:34N 51°21' E 004°18'4 4.5
2014-Oct-25 10:34N 51°17' E 004°22'1 0.8
2014-Oct-25 09:31N 51°17' E 004°23'0 0.0
2014-Oct-25 08:31N 51°17' E 004°23'0 0.0
2014-Oct-25 07:31N 51°17' E 004°23'0 0.0
2014-Oct-25 06:31N 51°17' E 004°23'0 0.0
2014-Oct-25 05:31N 51°17' E 004°23'0 0.0
2014-Oct-25 04:31N 51°17' E 004°23'0 0.0
2014-Oct-25 03:31N 51°17' E 004°23'0 0.0
2014-Oct-25 02:31N 51°17' E 004°23'0 0.0
2014-Oct-25 01:31N 51°17' E 004°23'0 0.0
2014-Oct-25 00:31N 51°17' E 004°23'0 0.0
2014-Oct-24 23:31N 51°17' E 004°23'0 0.0
2014-Oct-24 22:31N 51°17' E 004°23'0 0.0
2014-Oct-24 21:31N 51°17' E 004°23'0 0.0
2014-Oct-24 20:31N 51°17' E 004°23'0 0.0
2014-Oct-24 19:31N 51°17' E 004°23'0 0.0
2014-Oct-24 18:31N 51°17' E 004°23'0 0.0
2014-Oct-24 17:31N 51°17' E 004°23'0 0.0
2014-Oct-24 16:31N 51°17' E 004°23'0 0.0
2014-Oct-24 15:31N 51°17' E 004°23'0 0.0
2014-Oct-24 14:31N 51°17' E 004°23'0 0.0
2014-Oct-24 13:31N 51°17' E 004°23'0 0.0
2014-Oct-24 12:28N 51°17' E 004°23'0 0.0
2014-Oct-24 11:31N 51°17' E 004°23'0 0.0
2014-Oct-24 10:31N 51°17' E 004°23'0 0.0
2014-Oct-24 09:31N 51°17' E 004°23'0 0.0
2014-Oct-24 08:31N 51°17' E 004°23'0 0.0
2014-Oct-24 07:31N 51°17' E 004°23'0 0.0
2014-Oct-24 06:31N 51°17' E 004°23'0 0.0
2014-Oct-24 05:31N 51°17' E 004°23'0 0.0
2014-Oct-24 04:31N 51°17' E 004°23'0 0.0
2014-Oct-24 03:31N 51°17' E 004°23'0 0.0
2014-Oct-24 02:28N 51°17' E 004°23'0 0.0
2014-Oct-24 01:31N 51°17' E 004°23'0 0.0
2014-Oct-24 00:34N 51°17' E 004°23'0 0.0
2014-Oct-23 23:34N 51°17' E 004°23'0 0.0
2014-Oct-23 22:33N 51°17' E 004°23'0 0.0
2014-Oct-23 21:33N 51°17' E 004°23'0 0.0
2014-Oct-23 20:33N 51°17' E 004°23'0 0.0
2014-Oct-23 19:33N 51°17' E 004°23'0 0.0
2014-Oct-23 18:33N 51°17' E 004°23'0 0.0
2014-Oct-23 17:33N 51°17' E 004°23'0 0.0
2014-Oct-23 16:33N 51°17' E 004°23'0 0.0
2014-Oct-23 15:33N 51°17' E 004°23'0 0.0
2014-Oct-23 14:33N 51°17' E 004°23'0 0.0
2014-Oct-23 13:33N 51°17' E 004°23'0 0.0
2014-Oct-23 12:33N 51°17' E 004°23'0 0.0
2014-Oct-23 11:33N 51°17' E 004°23'0 0.0
2014-Oct-23 10:33N 51°17' E 004°23'0 0.0
2014-Oct-23 09:33N 51°17' E 004°23'0 0.0
2014-Oct-23 08:33N 51°17' E 004°23'0 0.0
2014-Oct-23 07:33N 51°17' E 004°23'0 0.0
2014-Oct-23 06:33N 51°17' E 004°23'0 0.0
2014-Oct-23 05:33N 51°17' E 004°23'0 0.0
2014-Oct-23 04:33N 51°17' E 004°23'0 0.0
2014-Oct-23 03:33N 51°17' E 004°23'0 0.0
2014-Oct-23 02:33N 51°17' E 004°23'0 0.0
2014-Oct-23 01:33N 51°17' E 004°23'0 0.0
2014-Oct-23 00:33N 51°17' E 004°23'0 0.0
2014-Oct-22 23:33N 51°17' E 004°23'0 0.0
2014-Oct-22 22:33N 51°17' E 004°23'0 0.0
2014-Oct-22 21:33N 51°17' E 004°23'0 0.0
2014-Oct-22 20:33N 51°17' E 004°23'0 0.0
2014-Oct-22 19:33N 51°17' E 004°23'0 0.0
2014-Oct-22 18:33N 51°17' E 004°23'0 0.0
2014-Oct-22 17:33N 51°17' E 004°23'0 0.0
2014-Oct-22 16:33N 51°17' E 004°23'0 0.0
2014-Oct-22 15:33N 51°17' E 004°23'0 0.0
2014-Oct-22 14:33N 51°17' E 004°23'0 0.0
2014-Oct-22 13:32N 51°17' E 004°23'0 0.0
2014-Oct-22 12:32N 51°17' E 004°23'0 0.0
2014-Oct-22 11:32N 51°17' E 004°23'0 0.0
2014-Oct-22 10:32N 51°17' E 004°23'0 0.0
2014-Oct-22 09:32N 51°17' E 004°23'0 0.0
2014-Oct-22 08:32N 51°17' E 004°23'0 0.0
2014-Oct-22 07:34N 51°17' E 004°23'2 1.9
2014-Oct-22 06:34N 51°17' E 004°20'1 1.1
2014-Oct-22 05:34N 51°17' E 004°19'8 8.0
2014-Oct-22 04:33N 51°23' E 004°09'7 7.3
2014-Oct-22 03:34N 51°24' E 003°57'9 9.2
2014-Oct-22 02:34N 51°24' E 003°43'9 8.9
2014-Oct-22 01:33N 51°25' E 003°28'1313.1
2014-Oct-22 00:33N 51°24' E 003°07'1413.3
2014-Oct-21 23:32N 51°26' E 002°46'20 9.9
2014-Oct-21 21:32N 51°45' E 002°37'5210.4
2014-Oct-21 16:33N 52°33' E 003°08'1110.9
2014-Oct-21 15:31N 52°44' E 003°12'14610.4
2014-Oct-21 01:33N 54°53' E 005°07'1212.6
2014-Oct-21 00:33N 55°03' E 005°18'26810.6
2014-Oct-19 23:12N 58°49' E 009°45'812.7
2014-Oct-19 22:34N 58°57' E 009°49'8 8.5
2014-Oct-19 21:33N 58°59' E 010°04'3 3.2
2014-Oct-19 20:33N 59°03' E 010°03'0 0.0
2014-Oct-19 19:33N 59°03' E 010°03'0 0.0
2014-Oct-19 18:30N 59°03' E 010°03'0 0.0
2014-Oct-19 17:33N 59°03' E 010°03'0 0.0
2014-Oct-19 16:33N 59°03' E 010°03'0 0.0
2014-Oct-19 15:33N 59°03' E 010°03'0 0.0
2014-Oct-19 14:33N 59°03' E 010°03'0 0.0
2014-Oct-19 13:33N 59°03' E 010°03'0 0.0
2014-Oct-19 12:33N 59°03' E 010°03'0 0.0
2014-Oct-19 11:33N 59°03' E 010°03'0 0.0
2014-Oct-19 10:33N 59°03' E 010°03'0 0.0
2014-Oct-19 09:33N 59°03' E 010°03'0 0.0
2014-Oct-19 08:33N 59°03' E 010°03'0 0.0
2014-Oct-19 07:33N 59°03' E 010°03'0 0.0
2014-Oct-19 06:33N 59°03' E 010°03'0 0.0
2014-Oct-19 05:33N 59°03' E 010°03'0 0.0
2014-Oct-19 04:33N 59°03' E 010°03'0 0.0
2014-Oct-19 03:33N 59°03' E 010°03'0 0.0
2014-Oct-19 02:33N 59°03' E 010°03'0 0.0
2014-Oct-19 01:33N 59°03' E 010°03'0 0.0
2014-Oct-19 00:33N 59°03' E 010°03'0 0.0
2014-Oct-18 23:33N 59°03' E 010°03'0 0.0
2014-Oct-18 22:30N 59°03' E 010°03'0 0.0
2014-Oct-18 21:33N 59°03' E 010°03'0 0.0
2014-Oct-18 20:33N 59°03' E 010°03'0 0.0
2014-Oct-18 19:30N 59°03' E 010°03'0 0.0
2014-Oct-18 18:33N 59°03' E 010°03'0 0.0
2014-Oct-18 17:33N 59°03' E 010°03'0 0.0
2014-Oct-18 16:30N 59°03' E 010°03'0 0.0
2014-Oct-18 15:33N 59°03' E 010°03'0 0.0
2014-Oct-18 14:33N 59°03' E 010°03'0 0.0
2014-Oct-18 13:33N 59°03' E 010°03'0 0.0
2014-Oct-18 12:32N 59°03' E 010°03'0 0.0
2014-Oct-18 11:32N 59°03' E 010°03'0 0.0
2014-Oct-18 10:26N 59°03' E 010°03'0 0.0
2014-Oct-18 09:32N 59°03' E 010°03'0 0.0
2014-Oct-18 08:29N 59°03' E 010°03'0 0.0
2014-Oct-18 07:33N 59°03' E 010°03'1 0.9
2014-Oct-18 06:33N 59°02' E 010°03'69 9.8
2014-Oct-17 23:30N 58°01' E 008°57'1413.6
2014-Oct-17 22:28N 57°54' E 008°35'1413.6
2014-Oct-17 21:27N 57°47' E 008°12'30912.4
2014-Oct-16 20:33N 57°12' W 001°18'1110.9
2014-Oct-16 19:33N 57°11' W 001°38'  

Dump ship's entire track history